Kidron, Ohio
Current Conditions -  °F | °C
As of 4:56 PM on Friday 31 Oct 2014 (Local Time) from KBJJ Reporting Station
Light Rain Light Rain  
Wind Chill: 45°   Ceiling: 1900
Heat Index: 45°   Visibility: 5mi
Dew Point: 40°   Wind: 3mph
Humidity: 82%   Direction: 300°WNW
Pressure: 29.85"   Gusts: NA
Location:  40.74°N, 81.74°W
Report Text: KBJJ 312056Z AUTO 30003KT 5SM -RA BKN019 OVC026 07/04 A2985 RMK AO2 SLP114 P0001 60001 T00720044 53003 TSNO
Loading
Personal Weather Stations






























Interactive Weather Map New forecast layout! Learn more

10-Day Weather Forecast

Advertisements
Track Severe Weather on mobile